sensor_id;sensor_type;location;lat;lon;timestamp;temperature;humidity
22852;DHT22;11592;45.460;9.240;2023-12-29T00:07:17;9.70;99.90
22852;DHT22;11592;45.460;9.240;2023-12-29T00:12:15;9.70;99.90
22852;DHT22;11592;45.460;9.240;2023-12-29T00:14:42;9.70;99.90
22852;DHT22;11592;45.460;9.240;2023-12-29T00:17:10;9.80;99.90
22852;DHT22;11592;45.460;9.240;2023-12-29T00:22:04;9.80;99.90
22852;DHT22;11592;45.460;9.240;2023-12-29T00:24:31;9.70;99.90
22852;DHT22;11592;45.460;9.240;2023-12-29T00:26:58;9.70;99.90
22852;DHT22;11592;45.460;9.240;2023-12-29T00:29:26;9.80;99.90
22852;DHT22;11592;45.460;9.240;2023-12-29T00:31:54;9.70;99.90
22852;DHT22;11592;45.460;9.240;2023-12-29T00:39:16;9.70;99.90
22852;DHT22;11592;45.460;9.240;2023-12-29T00:41:43;9.70;99.90
22852;DHT22;11592;45.460;9.240;2023-12-29T00:44:10;9.80;99.90
22852;DHT22;11592;45.460;9.240;2023-12-29T00:58:53;9.70;99.90
22852;DHT22;11592;45.460;9.240;2023-12-29T01:03:48;9.70;99.90
22852;DHT22;11592;45.460;9.240;2023-12-29T01:06:15;9.80;99.90
22852;DHT22;11592;45.460;9.240;2023-12-29T01:11:09;9.60;99.90
22852;DHT22;11592;45.460;9.240;2023-12-29T01:18:31;9.50;99.90
22852;DHT22;11592;45.460;9.240;2023-12-29T01:23:26;9.40;99.90
22852;DHT22;11592;45.460;9.240;2023-12-29T01:28:20;9.30;99.90
22852;DHT22;11592;45.460;9.240;2023-12-29T01:38:09;9.60;99.90
22852;DHT22;11592;45.460;9.240;2023-12-29T01:40:43;9.60;99.90
22852;DHT22;11592;45.460;9.240;2023-12-29T01:48:22;9.70;99.90
22852;DHT22;11592;45.460;9.240;2023-12-29T01:50:50;9.70;99.90
22852;DHT22;11592;45.460;9.240;2023-12-29T01:53:18;9.60;99.90
22852;DHT22;11592;45.460;9.240;2023-12-29T02:03:15;9.60;99.90
22852;DHT22;11592;45.460;9.240;2023-12-29T02:05:42;9.60;99.90
22852;DHT22;11592;45.460;9.240;2023-12-29T02:08:11;9.60;99.90
22852;DHT22;11592;45.460;9.240;2023-12-29T02:15:33;9.70;99.90
22852;DHT22;11592;45.460;9.240;2023-12-29T02:18:06;9.70;99.90
22852;DHT22;11592;45.460;9.240;2023-12-29T02:23:02;9.70;99.90
22852;DHT22;11592;45.460;9.240;2023-12-29T02:30:43;9.80;99.90
22852;DHT22;11592;45.460;9.240;2023-12-29T02:33:19;9.80;99.90
22852;DHT22;11592;45.460;9.240;2023-12-29T02:35:50;9.80;99.90
22852;DHT22;11592;45.460;9.240;2023-12-29T02:40:46;9.70;99.90
22852;DHT22;11592;45.460;9.240;2023-12-29T02:43:13;9.70;99.90
22852;DHT22;11592;45.460;9.240;2023-12-29T02:53:02;9.70;99.90
22852;DHT22;11592;45.460;9.240;2023-12-29T03:02:52;9.70;99.90
22852;DHT22;11592;45.460;9.240;2023-12-29T03:05:19;9.60;99.90
22852;DHT22;11592;45.460;9.240;2023-12-29T03:10:14;9.70;99.90
22852;DHT22;11592;45.460;9.240;2023-12-29T03:44:37;9.70;99.90
22852;DHT22;11592;45.460;9.240;2023-12-29T03:47:04;9.60;99.90
22852;DHT22;11592;45.460;9.240;2023-12-29T04:01:47;9.50;99.90
22852;DHT22;11592;45.460;9.240;2023-12-29T04:04:15;9.50;99.90
22852;DHT22;11592;45.460;9.240;2023-12-29T04:06:42;9.50;99.90
22852;DHT22;11592;45.460;9.240;2023-12-29T04:36:08;9.60;99.90
22852;DHT22;11592;45.460;9.240;2023-12-29T04:48:24;9.80;99.90
22852;DHT22;11592;45.460;9.240;2023-12-29T05:05:35;10.00;99.90
22852;DHT22;11592;45.460;9.240;2023-12-29T05:10:30;9.90;99.90
22852;DHT22;11592;45.460;9.240;2023-12-29T05:30:08;10.10;99.90
22852;DHT22;11592;45.460;9.240;2023-12-29T05:47:18;10.00;99.90
22852;DHT22;11592;45.460;9.240;2023-12-29T05:52:12;10.10;99.90
22852;DHT22;11592;45.460;9.240;2023-12-29T06:09:22;10.00;99.90
22852;DHT22;11592;45.460;9.240;2023-12-29T06:11:50;10.00;99.90
22852;DHT22;11592;45.460;9.240;2023-12-29T06:14:16;10.10;99.90
22852;DHT22;11592;45.460;9.240;2023-12-29T06:16:43;10.00;99.90
22852;DHT22;11592;45.460;9.240;2023-12-29T06:21:41;10.10;99.90
22852;DHT22;11592;45.460;9.240;2023-12-29T06:24:10;10.10;99.90
22852;DHT22;11592;45.460;9.240;2023-12-29T06:31:40;10.10;99.90
22852;DHT22;11592;45.460;9.240;2023-12-29T06:39:04;10.10;99.90
22852;DHT22;11592;45.460;9.240;2023-12-29T06:41:31;10.10;99.90
22852;DHT22;11592;45.460;9.240;2023-12-29T06:48:52;10.10;99.90
22852;DHT22;11592;45.460;9.240;2023-12-29T06:51:19;10.10;99.90
22852;DHT22;11592;45.460;9.240;2023-12-29T06:53:46;10.10;99.90
22852;DHT22;11592;45.460;9.240;2023-12-29T06:58:44;10.10;99.90
22852;DHT22;11592;45.460;9.240;2023-12-29T07:01:11;10.10;99.90
22852;DHT22;11592;45.460;9.240;2023-12-29T07:03:39;10.10;99.90
22852;DHT22;11592;45.460;9.240;2023-12-29T07:08:33;10.10;99.90
22852;DHT22;11592;45.460;9.240;2023-12-29T07:11:00;10.10;99.90
22852;DHT22;11592;45.460;9.240;2023-12-29T07:13:27;10.10;99.90
22852;DHT22;11592;45.460;9.240;2023-12-29T07:15:54;10.10;99.90
22852;DHT22;11592;45.460;9.240;2023-12-29T07:20:49;10.10;99.90
22852;DHT22;11592;45.460;9.240;2023-12-29T07:25:43;10.10;99.90
22852;DHT22;11592;45.460;9.240;2023-12-29T07:35:32;10.00;99.90
22852;DHT22;11592;45.460;9.240;2023-12-29T07:50:16;10.10;99.90
22852;DHT22;11592;45.460;9.240;2023-12-29T07:52:44;10.00;99.90
22852;DHT22;11592;45.460;9.240;2023-12-29T08:00:05;10.10;99.90
22852;DHT22;11592;45.460;9.240;2023-12-29T08:07:27;10.20;99.90
22852;DHT22;11592;45.460;9.240;2023-12-29T08:12:21;10.30;99.90
22852;DHT22;11592;45.460;9.240;2023-12-29T08:19:42;10.20;99.90
22852;DHT22;11592;45.460;9.240;2023-12-29T08:24:40;10.10;99.90
22852;DHT22;11592;45.460;9.240;2023-12-29T08:27:07;10.20;99.90
22852;DHT22;11592;45.460;9.240;2023-12-29T08:36:56;10.20;99.90
22852;DHT22;11592;45.460;9.240;2023-12-29T08:39:23;10.20;99.90
22852;DHT22;11592;45.460;9.240;2023-12-29T08:41:50;10.10;99.90
22852;DHT22;11592;45.460;9.240;2023-12-29T08:49:11;10.00;99.90
22852;DHT22;11592;45.460;9.240;2023-12-29T08:54:06;10.00;99.90
22852;DHT22;11592;45.460;9.240;2023-12-29T08:56:33;9.90;99.90
22852;DHT22;11592;45.460;9.240;2023-12-29T08:59:00;9.80;99.90
22852;DHT22;11592;45.460;9.240;2023-12-29T09:01:27;9.70;99.90
22852;DHT22;11592;45.460;9.240;2023-12-29T09:21:05;10.10;99.90
22852;DHT22;11592;45.460;9.240;2023-12-29T09:23:32;10.20;99.90
22852;DHT22;11592;45.460;9.240;2023-12-29T09:40:44;10.10;99.90
22852;DHT22;11592;45.460;9.240;2023-12-29T09:43:12;10.10;99.90
22852;DHT22;11592;45.460;9.240;2023-12-29T09:45:42;10.20;99.90
22852;DHT22;11592;45.460;9.240;2023-12-29T09:48:13;10.20;99.90
22852;DHT22;11592;45.460;9.240;2023-12-29T09:53:11;10.10;99.90
22852;DHT22;11592;45.460;9.240;2023-12-29T09:55:40;10.20;99.90
22852;DHT22;11592;45.460;9.240;2023-12-29T09:58:10;10.20;99.90
22852;DHT22;11592;45.460;9.240;2023-12-29T10:00:39;10.20;99.90
22852;DHT22;11592;45.460;9.240;2023-12-29T10:03:08;10.20;99.90
22852;DHT22;11592;45.460;9.240;2023-12-29T10:08:03;10.30;99.90
22852;DHT22;11592;45.460;9.240;2023-12-29T10:10:33;10.20;99.90
22852;DHT22;11592;45.460;9.240;2023-12-29T10:13:03;10.00;99.90
22852;DHT22;11592;45.460;9.240;2023-12-29T10:21:01;10.00;99.90
22852;DHT22;11592;45.460;9.240;2023-12-29T10:23:42;10.00;99.90
22852;DHT22;11592;45.460;9.240;2023-12-29T10:28:40;10.10;99.90
22852;DHT22;11592;45.460;9.240;2023-12-29T10:31:09;10.10;99.90
22852;DHT22;11592;45.460;9.240;2023-12-29T10:38:39;10.00;99.90
22852;DHT22;11592;45.460;9.240;2023-12-29T10:41:12;10.00;99.90
22852;DHT22;11592;45.460;9.240;2023-12-29T10:43:44;10.20;99.90
22852;DHT22;11592;45.460;9.240;2023-12-29T10:51:10;10.20;99.90
22852;DHT22;11592;45.460;9.240;2023-12-29T10:56:17;10.20;99.90
22852;DHT22;11592;45.460;9.240;2023-12-29T10:59:05;10.10;99.90
22852;DHT22;11592;45.460;9.240;2023-12-29T11:01:33;10.20;99.90
22852;DHT22;11592;45.460;9.240;2023-12-29T11:04:05;10.20;99.90
22852;DHT22;11592;45.460;9.240;2023-12-29T11:06:43;10.20;99.90
22852;DHT22;11592;45.460;9.240;2023-12-29T11:09:14;10.30;99.90
22852;DHT22;11592;45.460;9.240;2023-12-29T11:14:21;10.20;99.90
22852;DHT22;11592;45.460;9.240;2023-12-29T11:19:17;10.10;99.90
22852;DHT22;11592;45.460;9.240;2023-12-29T11:24:12;10.10;99.90
22852;DHT22;11592;45.460;9.240;2023-12-29T11:29:14;10.20;99.90
22852;DHT22;11592;45.460;9.240;2023-12-29T11:31:43;10.20;99.90
22852;DHT22;11592;45.460;9.240;2023-12-29T11:36:45;10.30;99.90
22852;DHT22;11592;45.460;9.240;2023-12-29T11:39:30;10.30;99.90
22852;DHT22;11592;45.460;9.240;2023-12-29T11:42:13;10.30;99.90
22852;DHT22;11592;45.460;9.240;2023-12-29T11:44:40;10.30;99.90
22852;DHT22;11592;45.460;9.240;2023-12-29T11:47:37;10.40;99.90
22852;DHT22;11592;45.460;9.240;2023-12-29T11:52:37;10.50;99.90
22852;DHT22;11592;45.460;9.240;2023-12-29T11:55:13;10.70;99.90
22852;DHT22;11592;45.460;9.240;2023-12-29T12:00:10;10.60;99.90
22852;DHT22;11592;45.460;9.240;2023-12-29T12:17:54;10.90;99.90
22852;DHT22;11592;45.460;9.240;2023-12-29T12:20:22;10.90;99.90
22852;DHT22;11592;45.460;9.240;2023-12-29T12:22:57;10.80;99.90
22852;DHT22;11592;45.460;9.240;2023-12-29T12:25:29;11.00;99.90
22852;DHT22;11592;45.460;9.240;2023-12-29T12:27:57;11.00;99.90
22852;DHT22;11592;45.460;9.240;2023-12-29T12:30:24;11.00;99.90
22852;DHT22;11592;45.460;9.240;2023-12-29T12:32:58;11.00;99.90
22852;DHT22;11592;45.460;9.240;2023-12-29T12:35:26;10.90;99.90
22852;DHT22;11592;45.460;9.240;2023-12-29T12:38:14;10.80;99.90
22852;DHT22;11592;45.460;9.240;2023-12-29T12:43:13;10.70;99.90
22852;DHT22;11592;45.460;9.240;2023-12-29T12:46:02;10.80;99.90
22852;DHT22;11592;45.460;9.240;2023-12-29T12:48:35;10.70;99.90
22852;DHT22;11592;45.460;9.240;2023-12-29T12:53:30;10.50;99.90
22852;DHT22;11592;45.460;9.240;2023-12-29T13:00:57;10.30;99.90
22852;DHT22;11592;45.460;9.240;2023-12-29T13:11:00;10.50;99.90
22852;DHT22;11592;45.460;9.240;2023-12-29T13:13:41;10.50;99.90
22852;DHT22;11592;45.460;9.240;2023-12-29T13:16:09;10.50;99.90
22852;DHT22;11592;45.460;9.240;2023-12-29T13:26:01;10.70;99.90
22852;DHT22;11592;45.460;9.240;2023-12-29T13:28:30;10.70;99.90
22852;DHT22;11592;45.460;9.240;2023-12-29T13:31:00;10.70;99.90
22852;DHT22;11592;45.460;9.240;2023-12-29T13:36:37;10.80;99.90
22852;DHT22;11592;45.460;9.240;2023-12-29T13:39:11;10.80;99.90
22852;DHT22;11592;45.460;9.240;2023-12-29T13:41:42;10.80;99.90
22852;DHT22;11592;45.460;9.240;2023-12-29T13:46:38;10.80;99.90
22852;DHT22;11592;45.460;9.240;2023-12-29T13:49:06;9.60;99.90
22852;DHT22;11592;45.460;9.240;2023-12-29T13:54:01;10.70;99.90
22852;DHT22;11592;45.460;9.240;2023-12-29T14:04:03;10.30;99.90
22852;DHT22;11592;45.460;9.240;2023-12-29T14:07:00;10.20;99.90
22852;DHT22;11592;45.460;9.240;2023-12-29T14:14:25;10.30;99.90
22852;DHT22;11592;45.460;9.240;2023-12-29T14:16:54;10.30;99.90
22852;DHT22;11592;45.460;9.240;2023-12-29T14:21:54;10.20;99.90
22852;DHT22;11592;45.460;9.240;2023-12-29T14:29:23;10.20;99.90
22852;DHT22;11592;45.460;9.240;2023-12-29T14:31:50;10.30;99.90
22852;DHT22;11592;45.460;9.240;2023-12-29T15:13:47;10.30;99.90
22852;DHT22;11592;45.460;9.240;2023-12-29T15:18:41;10.20;99.90
22852;DHT22;11592;45.460;9.240;2023-12-29T15:30:58;10.20;99.90
22852;DHT22;11592;45.460;9.240;2023-12-29T15:50:36;10.40;99.90
22852;DHT22;11592;45.460;9.240;2023-12-29T15:53:02;10.40;99.90
22852;DHT22;11592;45.460;9.240;2023-12-29T15:57:57;10.30;99.90
22852;DHT22;11592;45.460;9.240;2023-12-29T16:07:46;10.30;99.90
22852;DHT22;11592;45.460;9.240;2023-12-29T16:32:21;10.20;99.90
22852;DHT22;11592;45.460;9.240;2023-12-29T16:37:28;10.20;99.90
22852;DHT22;11592;45.460;9.240;2023-12-29T16:44:52;10.10;99.90
22852;DHT22;11592;45.460;9.240;2023-12-29T17:02:02;10.10;99.90
22852;DHT22;11592;45.460;9.240;2023-12-29T17:04:36;10.10;99.90
22852;DHT22;11592;45.460;9.240;2023-12-29T17:29:14;10.20;99.90
22852;DHT22;11592;45.460;9.240;2023-12-29T17:46:28;11.30;99.90
22852;DHT22;11592;45.460;9.240;2023-12-29T17:53:55;10.20;99.90
22852;DHT22;11592;45.460;9.240;2023-12-29T18:03:44;10.30;99.90
22852;DHT22;11592;45.460;9.240;2023-12-29T18:06:11;10.30;99.90
22852;DHT22;11592;45.460;9.240;2023-12-29T18:08:42;10.30;99.90
22852;DHT22;11592;45.460;9.240;2023-12-29T18:16:08;10.30;99.90
22852;DHT22;11592;45.460;9.240;2023-12-29T18:18:39;10.20;99.90
22852;DHT22;11592;45.460;9.240;2023-12-29T18:23:42;10.10;99.90
22852;DHT22;11592;45.460;9.240;2023-12-29T18:36:07;10.20;99.90
22852;DHT22;11592;45.460;9.240;2023-12-29T18:41:09;10.30;99.90
22852;DHT22;11592;45.460;9.240;2023-12-29T18:43:36;10.30;99.90
22852;DHT22;11592;45.460;9.240;2023-12-29T18:46:07;10.20;99.90
22852;DHT22;11592;45.460;9.240;2023-12-29T18:51:03;10.20;99.90
22852;DHT22;11592;45.460;9.240;2023-12-29T19:08:18;10.30;99.90
22852;DHT22;11592;45.460;9.240;2023-12-29T19:10:45;10.20;99.90
22852;DHT22;11592;45.460;9.240;2023-12-29T19:13:12;10.10;99.90
22852;DHT22;11592;45.460;9.240;2023-12-29T19:35:21;10.20;99.90
22852;DHT22;11592;45.460;9.240;2023-12-29T19:50:08;10.20;99.90
22852;DHT22;11592;45.460;9.240;2023-12-29T19:55:03;10.20;99.90
22852;DHT22;11592;45.460;9.240;2023-12-29T19:57:31;10.20;99.90
22852;DHT22;11592;45.460;9.240;2023-12-29T19:59:57;10.20;99.90
22852;DHT22;11592;45.460;9.240;2023-12-29T20:04:53;10.20;99.90
22852;DHT22;11592;45.460;9.240;2023-12-29T20:12:17;10.20;99.90
22852;DHT22;11592;45.460;9.240;2023-12-29T20:14:46;10.30;99.90
22852;DHT22;11592;45.460;9.240;2023-12-29T20:24:40;11.10;99.90
22852;DHT22;11592;45.460;9.240;2023-12-29T20:36:56;10.30;99.90
22852;DHT22;11592;45.460;9.240;2023-12-29T20:39:23;10.20;99.90
22852;DHT22;11592;45.460;9.240;2023-12-29T21:06:26;10.20;99.90
22852;DHT22;11592;45.460;9.240;2023-12-29T21:16:25;10.30;99.90
22852;DHT22;11592;45.460;9.240;2023-12-29T21:26:24;10.20;99.90
22852;DHT22;11592;45.460;9.240;2023-12-29T21:31:19;10.20;99.90
22852;DHT22;11592;45.460;9.240;2023-12-29T21:33:48;10.20;99.90
22852;DHT22;11592;45.460;9.240;2023-12-29T21:36:23;10.20;99.90
22852;DHT22;11592;45.460;9.240;2023-12-29T21:38:51;10.20;99.90
22852;DHT22;11592;45.460;9.240;2023-12-29T21:43:46;10.20;99.90
22852;DHT22;11592;45.460;9.240;2023-12-29T21:51:09;10.30;99.90
22852;DHT22;11592;45.460;9.240;2023-12-29T21:56:03;10.20;99.90
22852;DHT22;11592;45.460;9.240;2023-12-29T22:01:27;10.10;99.90
22852;DHT22;11592;45.460;9.240;2023-12-29T22:06:24;9.90;99.90
22852;DHT22;11592;45.460;9.240;2023-12-29T22:18:41;9.90;99.90
22852;DHT22;11592;45.460;9.240;2023-12-29T22:21:13;9.90;99.90
22852;DHT22;11592;45.460;9.240;2023-12-29T22:26:13;9.90;99.90
22852;DHT22;11592;45.460;9.240;2023-12-29T22:28:41;9.90;99.90
22852;DHT22;11592;45.460;9.240;2023-12-29T22:31:12;10.00;99.90
22852;DHT22;11592;45.460;9.240;2023-12-29T22:33:40;10.00;99.90
22852;DHT22;11592;45.460;9.240;2023-12-29T22:36:16;10.00;99.90
22852;DHT22;11592;45.460;9.240;2023-12-29T22:38:43;9.90;99.90
22852;DHT22;11592;45.460;9.240;2023-12-29T22:41:13;9.90;99.90
22852;DHT22;11592;45.460;9.240;2023-12-29T22:56:00;9.90;99.90
22852;DHT22;11592;45.460;9.240;2023-12-29T23:10:44;10.00;99.90
22852;DHT22;11592;45.460;9.240;2023-12-29T23:18:07;10.10;99.90
22852;DHT22;11592;45.460;9.240;2023-12-29T23:27:56;10.10;99.90
22852;DHT22;11592;45.460;9.240;2023-12-29T23:47:40;9.70;99.90
22852;DHT22;11592;45.460;9.240;2023-12-29T23:52:35;9.90;99.90
22852;DHT22;11592;45.460;9.240;2023-12-29T23:57:29;9.80;99.90
